»·PEaware :: N6834A KSNA-KSMO

N6834A :: KSNA-KSMO

FLIGHT INFORMATION

Flight Status: Arrived
Operator: Privately registered:
United States
More flights under this callsign
Pilot: Josh P. (24858)
Aircraft: CESSNA T210 TURBO CENTURION
(T210)
More flights by this aircraft type
Origin: KSNA John Wayne-Orange Co
United States
Destination: KSMO Santa Monica Mun
United States
More flights between these airports :: More routes between these airports
Route: SLI POXKU BAYJY DARTS
File this flight plan on PilotEdge
Remarks: TEC Route CSTP9
Altitude:
(Current/Filed)
6,000ft
Speed:
(Current/Filed)
160kts
Departed: 15-Jul-19 07:38 PM
Arrived: 15-Jul-19 08:14 PM
Distance/Time
Traveled:
36nm/0:36
Distance/Time
To Go:
Arrived

Flight Plot

Page will automatically refresh every two minutes.

Flight plan parsing failed; only flown route is shown


Map Options




Map Legend


Flown Route
Filed Route
Departure Airport
Arrival Airport
Navaid (VOR, NDB)
Fix

Horizontal Profiles

Position Reports

Time Latitude Longitude Heading Altitude Ground
Speed
15-Jul-19 19:11 33.676081 -117.870908 219 60ft 0kts
15-Jul-19 19:12 33.676081 -117.870908 219 60ft 0kts
15-Jul-19 19:13 33.676081 -117.870908 219 60ft 0kts
15-Jul-19 19:14 33.676081 -117.870908 219 60ft 0kts
15-Jul-19 19:15 33.676081 -117.870908 219 60ft 0kts
15-Jul-19 19:16 33.676081 -117.870908 219 60ft 0kts
15-Jul-19 19:23 33.676081 -117.870908 219 60ft 0kts
15-Jul-19 19:24 33.676081 -117.870908 219 60ft 0kts
15-Jul-19 19:25 33.676081 -117.870908 219 60ft 0kts
15-Jul-19 19:26 33.676081 -117.870908 219 60ft 0kts
15-Jul-19 19:27 33.676081 -117.870908 219 60ft 0kts
15-Jul-19 19:28 33.676081 -117.870908 219 60ft 0kts
15-Jul-19 19:29 33.676081 -117.870908 219 60ft 0kts
15-Jul-19 19:30 33.676081 -117.870908 219 60ft 0kts
15-Jul-19 19:31 33.676081 -117.870908 219 60ft 0kts
15-Jul-19 19:32 33.676081 -117.870908 219 60ft 0kts
15-Jul-19 19:33 33.676081 -117.870908 219 60ft 0kts
15-Jul-19 19:34 33.676081 -117.870908 219 60ft 0kts
15-Jul-19 19:35 33.678133 -117.868449 127 60ft 0kts
15-Jul-19 19:36 33.678133 -117.868449 127 60ft 0kts
15-Jul-19 19:37 33.665403 -117.876151 221 641ft 96kts
15-Jul-19 19:38 33.652262 -117.904932 241 2140ft 95kts
15-Jul-19 19:39 33.634752 -117.946636 241 2729ft 156kts
15-Jul-19 19:40 33.651624 -117.979116 27 3548ft 166kts
15-Jul-19 19:41 33.679079 -117.939475 39 4519ft 154kts
15-Jul-19 19:42 33.713266 -117.908788 38 5451ft 153kts
15-Jul-19 19:43 33.748785 -117.876829 34 6002ft 165kts
15-Jul-19 19:44 33.784931 -117.844395 34 5984ft 164kts
15-Jul-19 19:45 33.821584 -117.811404 34 5979ft 165kts
15-Jul-19 19:46 33.861215 -117.786188 5 5976ft 162kts
15-Jul-19 19:47 33.906299 -117.783941 357 5972ft 162kts
15-Jul-19 19:48 33.951255 -117.784523 356 5982ft 161kts
15-Jul-19 19:49 33.995579 -117.787972 326 5993ft 158kts
15-Jul-19 19:50 34.019775 -117.831479 294 6026ft 156kts
15-Jul-19 19:51 34.034205 -117.873524 291 6042ft 134kts
15-Jul-19 19:52 34.048454 -117.918708 290 6025ft 146kts
15-Jul-19 19:53 34.062649 -117.964633 290 6016ft 146kts
15-Jul-19 19:54 34.076823 -118.010845 290 6004ft 147kts
15-Jul-19 19:55 34.091110 -118.057455 290 5988ft 148kts
15-Jul-19 19:56 34.105505 -118.104258 289 5968ft 150kts
15-Jul-19 19:57 34.119497 -118.149866 289 5585ft 129kts
15-Jul-19 19:58 34.121549 -118.189923 253 5073ft 112kts
15-Jul-19 19:59 34.113892 -118.226144 252 5085ft 112kts
15-Jul-19 20:00 34.106085 -118.262860 253 5085ft 113kts
15-Jul-19 20:01 34.095692 -118.298803 230 4969ft 109kts
15-Jul-19 20:02 34.083387 -118.332672 301 4825ft 121kts
15-Jul-19 20:03 34.113093 -118.343070 357 4877ft 114kts
15-Jul-19 20:04 34.149805 -118.351385 352 4617ft 154kts
15-Jul-19 20:05 34.185435 -118.339758 41 4845ft 136kts
15-Jul-19 20:06 34.182523 -118.298131 111 4786ft 141kts
15-Jul-19 20:07 34.152210 -118.277903 195 4311ft 159kts
15-Jul-19 20:08 34.124328 -118.318643 273 3585ft 178kts
15-Jul-19 20:09 34.124240 -118.366717 199 2751ft 167kts
15-Jul-19 20:10 34.080997 -118.383890 194 1956ft 163kts
15-Jul-19 20:11 34.048863 -118.409046 223 1271ft 113kts
15-Jul-19 20:12 34.029226 -118.434909 224 485ft 93kts
15-Jul-19 20:13 34.015213 -118.451803 215 133ft 37kts

Navigation Log

Ident Type
Flight plan parsing failed, navigation log unavailable